createdAt,value
2023-02-03T00:01:53.445Z,81.84
2023-02-03T00:04:56.037Z,81.38
2023-02-03T00:07:58.575Z,80.99
2023-02-03T00:11:02.503Z,81.67
2023-02-03T00:14:07.793Z,81.46
2023-02-03T00:17:10.328Z,81.54
2023-02-03T00:20:13.072Z,81.58
2023-02-03T00:23:15.654Z,80.71
2023-02-03T00:26:19.560Z,81.44
2023-02-03T00:29:25.678Z,81.38
2023-02-03T00:32:28.335Z,80.83
2023-02-03T00:35:31.367Z,81.28
2023-02-03T00:38:33.898Z,80.66
2023-02-03T00:41:37.773Z,81.00
2023-02-03T00:44:40.311Z,80.97
2023-02-03T00:47:42.826Z,80.80
2023-02-03T00:50:47.295Z,80.52
2023-02-03T00:53:49.860Z,80.27
2023-02-03T00:56:53.742Z,80.52
2023-02-03T00:59:57.769Z,80.50
2023-02-03T01:03:00.297Z,80.17
2023-02-03T01:06:13.776Z,80.35
2023-02-03T01:09:16.309Z,79.90
2023-02-03T01:12:20.204Z,79.85
2023-02-03T01:15:22.742Z,79.15
2023-02-03T01:18:25.259Z,79.95
2023-02-03T01:21:27.789Z,78.94
2023-02-03T01:24:30.592Z,79.10
2023-02-03T01:27:34.460Z,78.97
2023-02-03T01:30:37.014Z,79.42
2023-02-03T01:33:40.801Z,79.26
2023-02-03T01:36:43.372Z,79.15
2023-02-03T01:39:45.911Z,78.85
2023-02-03T01:42:49.813Z,78.53
2023-02-03T01:45:52.377Z,79.23
2023-02-03T01:48:55.623Z,78.40
2023-02-03T01:51:58.154Z,79.04
2023-02-03T01:55:01.654Z,78.21
2023-02-03T01:58:07.644Z,78.88
2023-02-03T02:01:10.209Z,78.41
2023-02-03T02:04:12.735Z,78.71
2023-02-03T02:07:15.710Z,78.61
2023-02-03T02:10:18.232Z,78.82
2023-02-03T02:13:22.137Z,78.38
2023-02-03T02:16:29.557Z,77.57
2023-02-03T02:19:46.791Z,77.47
2023-02-03T02:22:59.041Z,77.89
2023-02-03T02:26:15.871Z,77.80
2023-02-03T02:29:51.246Z,77.89
2023-02-03T02:33:05.335Z,77.39
2023-02-03T02:36:11.194Z,77.75
2023-02-03T02:39:14.947Z,77.36
2023-02-03T02:42:20.267Z,78.08
2023-02-03T02:45:26.287Z,77.65
2023-02-03T02:48:33.235Z,77.63
2023-02-03T02:51:35.779Z,77.08
2023-02-03T02:54:40.092Z,77.85
2023-02-03T02:57:42.622Z,77.14
2023-02-03T03:00:45.196Z,77.34
2023-02-03T03:03:49.116Z,77.04
2023-02-03T03:06:53.528Z,77.63
2023-02-03T03:09:57.968Z,77.50
2023-02-03T03:13:02.142Z,76.89
2023-02-03T03:16:05.864Z,77.70
2023-02-03T03:19:10.616Z,77.21
2023-02-03T03:22:14.251Z,77.59
2023-02-03T03:25:17.660Z,77.63
2023-02-03T03:28:24.053Z,77.07
2023-02-03T03:31:26.712Z,77.26
2023-02-03T03:34:30.761Z,77.21
2023-02-03T03:37:35.530Z,77.73
2023-02-03T03:40:39.947Z,77.05
2023-02-03T03:43:43.856Z,76.85
2023-02-03T03:46:47.851Z,77.23
2023-02-03T03:49:51.777Z,77.33
2023-02-03T03:52:54.350Z,76.87
2023-02-03T03:55:56.883Z,77.13
2023-02-03T03:58:59.403Z,77.20
2023-02-03T04:02:04.494Z,77.45
2023-02-03T04:05:09.589Z,77.82
2023-02-03T04:08:12.135Z,77.21
2023-02-03T04:11:34.881Z,77.40
2023-02-03T04:14:39.074Z,78.01
2023-02-03T04:17:41.672Z,77.96
2023-02-03T04:20:45.560Z,78.10
2023-02-03T04:23:48.101Z,78.19
2023-02-03T04:26:50.625Z,77.87
2023-02-03T04:29:53.144Z,77.30
2023-02-03T04:32:55.670Z,77.77
2023-02-03T04:35:59.550Z,78.26
2023-02-03T04:39:02.063Z,78.13
2023-02-03T04:42:04.791Z,77.63
2023-02-03T04:45:08.299Z,77.66
2023-02-03T04:48:10.851Z,78.17
2023-02-03T04:51:14.760Z,78.21
2023-02-03T04:54:17.309Z,77.87
2023-02-03T04:57:19.829Z,77.73
2023-02-03T05:00:22.503Z,77.83
2023-02-03T05:03:26.372Z,78.50
2023-02-03T05:06:31.994Z,77.64
2023-02-03T05:09:34.535Z,77.80
2023-02-03T05:12:37.083Z,78.59
2023-02-03T05:15:39.609Z,77.87
2023-02-03T05:18:42.146Z,78.29
2023-02-03T05:21:46.015Z,78.66
2023-02-03T05:24:48.559Z,78.67
2023-02-03T05:27:51.107Z,78.68
2023-02-03T05:30:53.681Z,78.78
2023-02-03T05:33:56.321Z,78.37
2023-02-03T05:37:00.801Z,79.09
2023-02-03T05:40:17.294Z,78.88
2023-02-03T05:43:19.868Z,78.90
2023-02-03T05:46:22.399Z,79.01
2023-02-03T05:49:25.032Z,79.12
2023-02-03T05:52:28.909Z,79.44
2023-02-03T05:55:31.646Z,79.42
2023-02-03T05:58:34.177Z,78.94
2023-02-03T06:01:36.714Z,79.52
2023-02-03T06:04:39.375Z,79.81
2023-02-03T06:07:43.310Z,79.29
2023-02-03T06:10:45.863Z,79.76
2023-02-03T06:13:48.417Z,79.91
2023-02-03T06:16:50.984Z,79.87
2023-02-03T06:19:53.540Z,80.00
2023-02-03T06:22:57.391Z,79.67
2023-02-03T06:26:00.569Z,80.25
2023-02-03T06:29:03.108Z,80.18
2023-02-03T06:32:05.958Z,80.43
2023-02-03T06:35:09.241Z,79.68
2023-02-03T06:38:13.423Z,80.49
2023-02-03T06:41:15.926Z,80.49
2023-02-03T06:44:18.447Z,80.51
2023-02-03T06:47:20.988Z,80.50
2023-02-03T06:50:23.583Z,80.94
2023-02-03T06:53:27.472Z,80.88
2023-02-03T06:56:30.073Z,80.47
2023-02-03T06:59:32.610Z,81.06
2023-02-03T07:02:35.158Z,80.67
2023-02-03T07:05:37.773Z,81.43
2023-02-03T07:08:41.693Z,81.02
2023-02-03T07:11:44.244Z,80.96
2023-02-03T07:14:46.771Z,80.68
2023-02-03T07:17:54.231Z,80.59
2023-02-03T07:20:56.932Z,80.74
2023-02-03T07:24:02.264Z,80.68
2023-02-03T07:27:04.850Z,80.67
2023-02-03T07:30:09.257Z,80.52
2023-02-03T07:33:11.799Z,80.67
2023-02-03T07:36:14.341Z,80.82
2023-02-03T07:39:18.305Z,80.95
2023-02-03T07:42:20.829Z,81.35
2023-02-03T07:45:24.721Z,80.86
2023-02-03T07:48:27.251Z,80.69
2023-02-03T07:51:29.776Z,81.27
2023-02-03T07:54:33.674Z,80.48
2023-02-03T07:57:36.949Z,81.20
2023-02-03T08:00:39.494Z,80.93
2023-02-03T08:03:42.071Z,80.78
2023-02-03T08:06:44.759Z,80.56
2023-02-03T08:09:48.644Z,81.20
2023-02-03T08:12:53.977Z,80.78
2023-02-03T08:15:56.579Z,80.86
2023-02-03T08:18:59.326Z,80.54
2023-02-03T08:22:01.935Z,80.36
2023-02-03T08:25:07.323Z,81.01
2023-02-03T08:28:09.872Z,80.47
2023-02-03T08:31:12.758Z,80.91
2023-02-03T08:34:15.384Z,80.16
2023-02-03T08:37:19.354Z,81.10
2023-02-03T08:40:23.392Z,80.46
2023-02-03T08:43:25.964Z,80.83
2023-02-03T08:46:28.625Z,80.72
2023-02-03T08:49:31.229Z,80.29
2023-02-03T08:52:33.743Z,80.81
2023-02-03T08:55:39.638Z,80.16
2023-02-03T08:58:42.244Z,80.50
2023-02-03T09:01:45.851Z,80.09
2023-02-03T09:04:49.142Z,80.78
2023-02-03T09:07:51.809Z,80.19
2023-02-03T09:10:55.695Z,80.44
2023-02-03T09:13:58.227Z,80.04
2023-02-03T09:17:00.912Z,80.77
2023-02-03T09:20:03.556Z,81.03
2023-02-03T09:23:06.173Z,80.84
2023-02-03T09:26:11.923Z,80.75
2023-02-03T09:29:14.533Z,80.11
2023-02-03T09:32:17.065Z,80.82
2023-02-03T09:35:19.684Z,80.40
2023-02-03T09:38:22.326Z,80.15
2023-02-03T09:41:32.230Z,80.58
2023-02-03T09:44:37.715Z,80.85
2023-02-03T09:47:41.164Z,80.28
2023-02-03T09:50:44.009Z,80.63
2023-02-03T09:53:49.110Z,80.02
2023-02-03T09:56:55.536Z,80.19
2023-02-03T09:59:59.325Z,79.88
2023-02-03T10:03:04.569Z,78.91
2023-02-03T10:06:11.131Z,79.37
2023-02-03T10:09:20.543Z,79.38
2023-02-03T10:12:41.157Z,79.46
2023-02-03T10:15:59.353Z,78.74
2023-02-03T10:19:04.298Z,78.41
2023-02-03T10:22:06.969Z,78.30
2023-02-03T10:25:16.959Z,78.02
2023-02-03T10:28:21.701Z,77.77
2023-02-03T10:31:25.503Z,77.56
2023-02-03T10:34:28.067Z,77.40
2023-02-03T10:37:32.018Z,77.27
2023-02-03T10:40:35.180Z,77.67
2023-02-03T10:43:48.194Z,77.25
2023-02-03T10:46:50.775Z,77.23
2023-02-03T10:49:54.365Z,77.06
2023-02-03T10:52:57.674Z,76.52
2023-02-03T10:56:04.596Z,76.32
2023-02-03T10:59:09.688Z,76.09
2023-02-03T11:02:22.775Z,76.29
2023-02-03T11:05:26.369Z,76.60
2023-02-03T11:08:30.689Z,76.30
2023-02-03T11:11:35.108Z,75.89
2023-02-03T11:14:39.365Z,76.50
2023-02-03T11:17:45.591Z,75.75
2023-02-03T11:20:48.115Z,76.21
2023-02-03T11:23:56.703Z,76.08
2023-02-03T11:27:00.240Z,75.64
2023-02-03T11:30:12.732Z,75.73
2023-02-03T11:33:18.107Z,75.45
2023-02-03T11:36:20.740Z,75.85
2023-02-03T11:39:28.168Z,75.90
2023-02-03T11:42:30.486Z,75.76
2023-02-03T11:45:38.492Z,76.01
2023-02-03T11:48:46.421Z,75.70
2023-02-03T11:51:51.514Z,76.18
2023-02-03T11:54:56.411Z,75.82
2023-02-03T11:58:05.799Z,75.41
2023-02-03T12:01:12.600Z,75.97
2023-02-03T12:04:25.094Z,75.28
2023-02-03T12:07:34.067Z,75.70
2023-02-03T12:10:42.943Z,75.66
2023-02-03T12:13:55.438Z,75.49
2023-02-03T12:17:23.729Z,76.01
2023-02-03T12:20:33.049Z,75.79
2023-02-03T12:23:41.460Z,75.33
2023-02-03T12:26:47.835Z,75.56
2023-02-03T12:29:52.176Z,75.49
2023-02-03T12:32:56.950Z,75.70
2023-02-03T12:36:01.039Z,75.12
2023-02-03T12:39:06.120Z,75.38
2023-02-03T12:42:13.820Z,75.27
2023-02-03T12:45:18.618Z,75.60
2023-02-03T12:48:23.633Z,75.48
2023-02-03T12:51:31.782Z,75.47
2023-02-03T12:54:38.441Z,75.51
2023-02-03T12:57:41.735Z,75.59
2023-02-03T13:00:46.406Z,75.41
2023-02-03T13:03:51.458Z,75.64
2023-02-03T13:06:56.112Z,75.66
2023-02-03T13:10:00.736Z,75.64
2023-02-03T13:13:04.562Z,75.89
2023-02-03T13:16:08.329Z,75.85
2023-02-03T13:19:14.718Z,76.02
2023-02-03T13:22:17.465Z,75.45
2023-02-03T13:25:23.294Z,75.46
2023-02-03T13:28:32.887Z,75.40
2023-02-03T13:31:42.490Z,75.95
2023-02-03T13:34:53.070Z,75.91
2023-02-03T13:38:14.906Z,76.06
2023-02-03T13:41:20.384Z,75.80
2023-02-03T13:44:26.815Z,76.36
2023-02-03T13:47:30.088Z,76.51
2023-02-03T13:50:34.039Z,76.15
2023-02-03T13:53:37.695Z,76.23
2023-02-03T13:56:40.305Z,76.42
2023-02-03T13:59:43.545Z,76.35
2023-02-03T14:02:52.756Z,76.63
2023-02-03T14:05:56.821Z,76.68
2023-02-03T14:09:00.175Z,76.77
2023-02-03T14:12:36.707Z,77.53
2023-02-03T14:15:40.379Z,76.99
2023-02-03T14:18:46.494Z,77.83
2023-02-03T14:21:52.565Z,77.09
2023-02-03T14:24:55.600Z,77.15
2023-02-03T14:28:00.235Z,77.31
2023-02-03T14:31:12.202Z,77.99
2023-02-03T14:34:14.909Z,77.65
2023-02-03T14:37:23.415Z,78.14
2023-02-03T14:40:32.128Z,77.77
2023-02-03T14:43:35.949Z,78.13
2023-02-03T14:46:47.441Z,78.33
2023-02-03T14:50:03.505Z,78.67
2023-02-03T14:53:22.121Z,78.22
2023-02-03T14:56:51.663Z,77.94
2023-02-03T14:59:56.961Z,78.55
2023-02-03T15:03:22.443Z,78.62
2023-02-03T15:06:38.089Z,78.24
2023-02-03T15:09:43.715Z,78.41
2023-02-03T15:12:47.840Z,78.19
2023-02-03T15:15:50.417Z,78.30
2023-02-03T15:19:02.760Z,78.79
2023-02-03T15:22:21.375Z,78.39
2023-02-03T15:25:26.499Z,78.88
2023-02-03T15:28:30.019Z,78.80
2023-02-03T15:31:34.282Z,78.48
2023-02-03T15:34:39.443Z,78.71
2023-02-03T15:37:44.031Z,79.03
2023-02-03T15:40:48.936Z,78.63
2023-02-03T15:43:52.381Z,78.63
2023-02-03T15:46:55.081Z,79.51
2023-02-03T15:50:03.143Z,78.60
2023-02-03T15:53:07.599Z,79.29
2023-02-03T15:56:18.372Z,78.97
2023-02-03T15:59:22.428Z,79.15
2023-02-03T16:02:28.703Z,78.77
2023-02-03T16:05:33.126Z,79.51
2023-02-03T16:08:39.654Z,78.69
2023-02-03T16:11:44.040Z,78.75
2023-02-03T16:14:47.326Z,79.32
2023-02-03T16:17:55.499Z,79.25
2023-02-03T16:20:58.106Z,78.96
2023-02-03T16:24:00.664Z,79.43
2023-02-03T16:27:22.895Z,79.06
2023-02-03T16:30:43.366Z,79.79
2023-02-03T16:34:04.139Z,79.07
2023-02-03T16:37:30.939Z,79.99
2023-02-03T16:40:51.347Z,79.83
2023-02-03T16:44:12.905Z,79.54
2023-02-03T16:47:40.786Z,79.38
2023-02-03T16:50:58.230Z,80.02
2023-02-03T16:54:01.861Z,79.66
2023-02-03T16:57:04.507Z,80.13
2023-02-03T17:00:11.731Z,80.23
2023-02-03T17:03:15.595Z,79.54
2023-02-03T17:06:18.142Z,79.66
2023-02-03T17:09:22.163Z,80.04
2023-02-03T17:12:25.644Z,80.33
2023-02-03T17:15:29.865Z,79.70
2023-02-03T17:18:32.655Z,79.63
2023-02-03T17:21:35.295Z,80.36
2023-02-03T17:24:37.841Z,80.10
2023-02-03T17:27:40.398Z,79.87
2023-02-03T17:30:46.593Z,79.64
2023-02-03T17:33:51.472Z,80.17
2023-02-03T17:36:55.744Z,79.74
2023-02-03T17:53:21.710Z,80.10
2023-02-03T17:56:25.413Z,79.45
2023-02-03T17:59:28.119Z,80.03
2023-02-03T18:02:32.009Z,79.25
2023-02-03T18:05:36.883Z,79.76
2023-02-03T18:08:39.612Z,79.88
2023-02-03T18:11:42.177Z,79.26
2023-02-03T18:14:44.747Z,79.87
2023-02-03T18:17:48.708Z,79.35
2023-02-03T18:20:51.288Z,79.32
2023-02-03T18:23:56.897Z,80.03
2023-02-03T18:27:00.382Z,80.00
2023-02-03T18:30:02.963Z,79.94
2023-02-03T18:33:06.988Z,79.54
2023-02-03T18:36:10.438Z,79.32
2023-02-03T18:39:14.220Z,79.26
2023-02-03T18:42:16.817Z,80.11
2023-02-03T18:45:19.532Z,79.92
2023-02-03T18:48:23.408Z,79.70
2023-02-03T18:51:26.482Z,78.95
2023-02-03T18:54:30.109Z,79.67
2023-02-03T18:57:32.663Z,79.69
2023-02-03T19:00:35.208Z,78.93
2023-02-03T19:03:39.197Z,79.30
2023-02-03T19:06:45.440Z,79.58
2023-02-03T19:09:47.982Z,78.44
2023-02-03T19:12:50.583Z,78.60
2023-02-03T19:15:53.162Z,78.20
2023-02-03T19:18:57.119Z,78.98
2023-02-03T19:21:59.712Z,78.03
2023-02-03T19:25:02.326Z,78.22
2023-02-03T19:28:05.897Z,77.79
2023-02-03T19:31:11.136Z,77.52
2023-02-03T19:34:16.648Z,77.14
2023-02-03T19:37:19.231Z,77.63
2023-02-03T19:40:21.852Z,77.86
2023-02-03T19:43:25.285Z,77.00
2023-02-03T19:46:31.759Z,77.55
2023-02-03T19:49:35.816Z,76.90
2023-02-03T19:52:38.407Z,77.08
2023-02-03T19:55:40.928Z,76.61
2023-02-03T19:58:45.837Z,76.69
2023-02-03T20:01:49.601Z,76.86
2023-02-03T20:04:53.524Z,76.71
2023-02-03T20:07:56.113Z,76.57
2023-02-03T20:10:58.744Z,76.68
2023-02-03T20:14:01.348Z,75.93
2023-02-03T20:17:06.025Z,76.20
2023-02-03T20:20:10.668Z,75.79
2023-02-03T20:23:13.208Z,76.57
2023-02-03T20:26:15.821Z,75.83
2023-02-03T20:29:18.419Z,75.79
2023-02-03T20:32:21.019Z,76.56
2023-02-03T20:35:25.256Z,76.15
2023-02-03T20:38:28.491Z,75.82
2023-02-03T20:41:31.093Z,76.66
2023-02-03T20:44:33.719Z,76.21
2023-02-03T20:47:36.317Z,75.96
2023-02-03T20:50:46.459Z,76.17
2023-02-03T20:53:49.908Z,76.10
2023-02-03T20:56:52.460Z,76.56
2023-02-03T20:59:55.041Z,76.83
2023-02-03T21:03:15.145Z,76.59
2023-02-03T21:06:19.792Z,77.47
2023-02-03T21:09:22.529Z,76.88
2023-02-03T21:12:25.500Z,77.56
2023-02-03T21:15:29.249Z,77.24
2023-02-03T21:18:35.839Z,77.29
2023-02-03T21:21:42.132Z,77.09
2023-02-03T21:24:46.945Z,77.51
2023-02-03T21:27:49.922Z,77.45
2023-02-03T21:30:52.510Z,78.21
2023-02-03T21:33:55.190Z,77.92
2023-02-03T21:36:59.661Z,77.69
2023-02-03T21:40:02.204Z,78.10
2023-02-03T21:43:04.764Z,78.31
2023-02-03T21:46:07.381Z,78.39
2023-02-03T21:49:10.647Z,78.15
2023-02-03T21:52:14.667Z,78.27
2023-02-03T21:55:17.295Z,78.94
2023-02-03T21:58:24.444Z,78.56
2023-02-03T22:01:27.943Z,79.18
2023-02-03T22:04:30.561Z,78.82
2023-02-03T22:07:34.504Z,79.00
2023-02-03T22:10:37.095Z,78.98
2023-02-03T22:13:39.680Z,79.65
2023-02-03T22:16:42.265Z,79.39
2023-02-03T22:19:44.874Z,79.47
2023-02-03T22:22:48.811Z,79.63
2023-02-03T22:25:51.379Z,80.19
2023-02-03T22:28:54.101Z,79.47
2023-02-03T22:31:56.883Z,80.27
2023-02-03T22:34:59.525Z,79.97
2023-02-03T22:38:03.425Z,79.93
2023-02-03T22:41:06.247Z,80.26
2023-02-03T22:44:08.852Z,79.96
2023-02-03T22:47:11.424Z,80.42
2023-02-03T22:50:14.425Z,81.03
2023-02-03T22:53:18.345Z,80.70
2023-02-03T22:56:21.864Z,81.21
2023-02-03T22:59:25.074Z,80.82
2023-02-03T23:02:27.651Z,81.27
2023-02-03T23:05:30.257Z,81.05
2023-02-03T23:08:34.187Z,81.47
2023-02-03T23:11:36.732Z,81.09
2023-02-03T23:14:39.294Z,81.52
2023-02-03T23:17:42.004Z,81.09
2023-02-03T23:20:44.557Z,81.18
2023-02-03T23:23:48.512Z,81.25
2023-02-03T23:26:51.109Z,81.17
2023-02-03T23:29:53.677Z,81.61
2023-02-03T23:32:56.288Z,81.44
2023-02-03T23:35:57.915Z,81.79
2023-02-03T23:39:01.801Z,82.07
2023-02-03T23:42:04.517Z,81.69
2023-02-03T23:45:11.542Z,81.76
2023-02-03T23:48:14.143Z,82.43
2023-02-03T23:51:16.696Z,81.88
2023-02-03T23:54:20.614Z,82.45
2023-02-03T23:57:23.137Z,82.69
